Pocomoke, Maryland
Current Conditions -  °F | °C
As of 8:54 PM on Sunday 23 Nov 2014 (Local Time) from KWAL Reporting Station
Overcast Overcast  
Wind Chill: 55°   Ceiling: 4400
Heat Index: 55°   Visibility: 10mi
Dew Point: 54°   Wind: 8mph
Humidity: 96%   Direction: 160°SSE
Pressure: 30.03"   Gusts: NA
Location:  38.0556°N, 75.5253°W
Report Text: KWAL 240154Z AUTO 16007KT 10SM SCT027 BKN044 OVC060 13/12 A3003 RMK AO2 RAE03 SLP165 P0000 T01280122
Loading
Personal Weather Stations






























Interactive Weather Map New forecast layout! Learn more

10-Day Weather Forecast

Advertisements
Track Severe Weather on mobile